sensor_id;sensor_type;location;lat;lon;timestamp;P1;durP1;ratioP1;P2;durP2;ratioP2
2362;SDS011;64265;51.664;7.626;2023-05-09T00:01:44;3.73;;;2.10;;
2362;SDS011;64265;51.664;7.626;2023-05-09T00:04:10;1.70;;;1.60;;
2362;SDS011;64265;51.664;7.626;2023-05-09T00:06:37;2.17;;;1.80;;
2362;SDS011;64265;51.664;7.626;2023-05-09T00:09:04;1.97;;;1.40;;
2362;SDS011;64265;51.664;7.626;2023-05-09T00:11:31;1.83;;;1.73;;
2362;SDS011;64265;51.664;7.626;2023-05-09T00:13:59;1.80;;;1.70;;
2362;SDS011;64265;51.664;7.626;2023-05-09T00:16:26;1.63;;;1.53;;
2362;SDS011;64265;51.664;7.626;2023-05-09T00:18:53;1.67;;;1.57;;
2362;SDS011;64265;51.664;7.626;2023-05-09T00:21:22;1.90;;;1.80;;
2362;SDS011;64265;51.664;7.626;2023-05-09T00:23:48;2.00;;;1.80;;
2362;SDS011;64265;51.664;7.626;2023-05-09T00:26:15;2.00;;;1.80;;
2362;SDS011;64265;51.664;7.626;2023-05-09T00:28:42;3.47;;;1.90;;
2362;SDS011;64265;51.664;7.626;2023-05-09T00:31:10;1.80;;;1.63;;
2362;SDS011;64265;51.664;7.626;2023-05-09T00:33:37;1.70;;;1.60;;
2362;SDS011;64265;51.664;7.626;2023-05-09T00:36:04;1.80;;;1.70;;
2362;SDS011;64265;51.664;7.626;2023-05-09T00:38:31;1.73;;;1.63;;
2362;SDS011;64265;51.664;7.626;2023-05-09T00:40:57;1.80;;;1.70;;
2362;SDS011;64265;51.664;7.626;2023-05-09T00:43:24;4.80;;;1.65;;
2362;SDS011;64265;51.664;7.626;2023-05-09T00:45:51;2.47;;;1.80;;
2362;SDS011;64265;51.664;7.626;2023-05-09T00:48:19;1.50;;;1.40;;
2362;SDS011;64265;51.664;7.626;2023-05-09T00:50:46;1.80;;;1.70;;
2362;SDS011;64265;51.664;7.626;2023-05-09T00:53:16;3.10;;;1.80;;
2362;SDS011;64265;51.664;7.626;2023-05-09T00:55:43;2.73;;;1.90;;
2362;SDS011;64265;51.664;7.626;2023-05-09T00:58:10;1.70;;;1.60;;
2362;SDS011;64265;51.664;7.626;2023-05-09T01:00:37;1.60;;;1.50;;
2362;SDS011;64265;51.664;7.626;2023-05-09T01:03:04;1.90;;;1.40;;
2362;SDS011;64265;51.664;7.626;2023-05-09T01:05:34;1.55;;;1.45;;
2362;SDS011;64265;51.664;7.626;2023-05-09T01:08:09;2.03;;;1.92;;
2362;SDS011;64265;51.664;7.626;2023-05-09T01:10:44;1.60;;;1.50;;
2362;SDS011;64265;51.664;7.626;2023-05-09T01:13:21;1.95;;;1.85;;
2362;SDS011;64265;51.664;7.626;2023-05-09T01:15:54;1.70;;;1.60;;
2362;SDS011;64265;51.664;7.626;2023-05-09T01:18:31;1.67;;;1.58;;
2362;SDS011;64265;51.664;7.626;2023-05-09T01:21:07;1.70;;;1.57;;
2362;SDS011;64265;51.664;7.626;2023-05-09T01:23:44;1.57;;;1.47;;
2362;SDS011;64265;51.664;7.626;2023-05-09T01:26:24;1.67;;;1.57;;
2362;SDS011;64265;51.664;7.626;2023-05-09T01:31:54;2.93;;;1.70;;
2362;SDS011;64265;51.664;7.626;2023-05-09T01:34:23;1.63;;;1.53;;
2362;SDS011;64265;51.664;7.626;2023-05-09T01:36:53;1.80;;;1.70;;
2362;SDS011;64265;51.664;7.626;2023-05-09T01:39:23;1.60;;;1.47;;
2362;SDS011;64265;51.664;7.626;2023-05-09T01:41:52;1.23;;;1.13;;
2362;SDS011;64265;51.664;7.626;2023-05-09T01:44:20;1.60;;;1.50;;
2362;SDS011;64265;51.664;7.626;2023-05-09T01:46:48;1.50;;;1.40;;
2362;SDS011;64265;51.664;7.626;2023-05-09T01:49:18;1.40;;;1.30;;
2362;SDS011;64265;51.664;7.626;2023-05-09T01:51:47;1.70;;;1.60;;
2362;SDS011;64265;51.664;7.626;2023-05-09T01:54:15;1.40;;;1.30;;
2362;SDS011;64265;51.664;7.626;2023-05-09T01:56:43;1.50;;;1.40;;
2362;SDS011;64265;51.664;7.626;2023-05-09T01:59:11;2.00;;;1.90;;
2362;SDS011;64265;51.664;7.626;2023-05-09T02:01:40;1.30;;;1.20;;
2362;SDS011;64265;51.664;7.626;2023-05-09T02:04:07;1.73;;;1.63;;
2362;SDS011;64265;51.664;7.626;2023-05-09T02:06:36;1.40;;;1.23;;
2362;SDS011;64265;51.664;7.626;2023-05-09T02:09:03;1.70;;;1.60;;
2362;SDS011;64265;51.664;7.626;2023-05-09T02:11:30;1.27;;;1.17;;
2362;SDS011;64265;51.664;7.626;2023-05-09T02:13:57;1.90;;;1.80;;
2362;SDS011;64265;51.664;7.626;2023-05-09T02:16:24;1.60;;;1.33;;
2362;SDS011;64265;51.664;7.626;2023-05-09T02:18:51;1.30;;;1.20;;
2362;SDS011;64265;51.664;7.626;2023-05-09T02:21:18;1.73;;;1.40;;
2362;SDS011;64265;51.664;7.626;2023-05-09T02:23:46;1.40;;;1.30;;
2362;SDS011;64265;51.664;7.626;2023-05-09T02:26:13;1.40;;;1.20;;
2362;SDS011;64265;51.664;7.626;2023-05-09T02:28:40;1.58;;;1.48;;
2362;SDS011;64265;51.664;7.626;2023-05-09T02:31:09;1.27;;;1.17;;
2362;SDS011;64265;51.664;7.626;2023-05-09T02:33:37;2.37;;;1.37;;
2362;SDS011;64265;51.664;7.626;2023-05-09T02:36:05;1.88;;;1.42;;
2362;SDS011;64265;51.664;7.626;2023-05-09T02:38:33;1.30;;;1.20;;
2362;SDS011;64265;51.664;7.626;2023-05-09T02:41:02;1.60;;;1.50;;
2362;SDS011;64265;51.664;7.626;2023-05-09T02:43:29;1.43;;;1.33;;
2362;SDS011;64265;51.664;7.626;2023-05-09T02:45:55;2.20;;;1.50;;
2362;SDS011;64265;51.664;7.626;2023-05-09T02:48:22;1.15;;;1.05;;
2362;SDS011;64265;51.664;7.626;2023-05-09T02:50:49;2.00;;;1.80;;
2362;SDS011;64265;51.664;7.626;2023-05-09T02:53:15;1.50;;;1.40;;
2362;SDS011;64265;51.664;7.626;2023-05-09T02:55:42;1.97;;;1.77;;
2362;SDS011;64265;51.664;7.626;2023-05-09T02:58:10;1.20;;;1.03;;
2362;SDS011;64265;51.664;7.626;2023-05-09T03:00:37;1.57;;;1.47;;
2362;SDS011;64265;51.664;7.626;2023-05-09T03:03:04;1.30;;;1.17;;
2362;SDS011;64265;51.664;7.626;2023-05-09T03:05:30;1.30;;;1.17;;
2362;SDS011;64265;51.664;7.626;2023-05-09T03:07:57;1.50;;;1.40;;
2362;SDS011;64265;51.664;7.626;2023-05-09T03:10:24;1.63;;;1.52;;
2362;SDS011;64265;51.664;7.626;2023-05-09T03:12:51;1.40;;;1.30;;
2362;SDS011;64265;51.664;7.626;2023-05-09T03:15:19;1.50;;;1.40;;
2362;SDS011;64265;51.664;7.626;2023-05-09T03:17:46;1.50;;;1.40;;
2362;SDS011;64265;51.664;7.626;2023-05-09T03:20:13;1.10;;;1.00;;
2362;SDS011;64265;51.664;7.626;2023-05-09T03:22:40;1.50;;;1.40;;
2362;SDS011;64265;51.664;7.626;2023-05-09T03:25:07;1.40;;;1.30;;
2362;SDS011;64265;51.664;7.626;2023-05-09T03:27:34;1.52;;;1.42;;
2362;SDS011;64265;51.664;7.626;2023-05-09T03:30:01;1.67;;;1.47;;
2362;SDS011;64265;51.664;7.626;2023-05-09T03:32:29;1.75;;;1.65;;
2362;SDS011;64265;51.664;7.626;2023-05-09T03:34:56;1.40;;;1.30;;
2362;SDS011;64265;51.664;7.626;2023-05-09T03:37:22;1.40;;;1.30;;
2362;SDS011;64265;51.664;7.626;2023-05-09T03:39:49;1.30;;;1.20;;
2362;SDS011;64265;51.664;7.626;2023-05-09T03:42:16;1.57;;;1.47;;
2362;SDS011;64265;51.664;7.626;2023-05-09T03:44:42;1.70;;;1.60;;
2362;SDS011;64265;51.664;7.626;2023-05-09T03:47:11;1.50;;;1.40;;
2362;SDS011;64265;51.664;7.626;2023-05-09T03:49:39;1.50;;;1.40;;
2362;SDS011;64265;51.664;7.626;2023-05-09T03:52:06;1.60;;;1.50;;
2362;SDS011;64265;51.664;7.626;2023-05-09T03:54:33;1.40;;;1.30;;
2362;SDS011;64265;51.664;7.626;2023-05-09T03:57:00;1.50;;;1.40;;
2362;SDS011;64265;51.664;7.626;2023-05-09T03:59:27;1.48;;;1.23;;
2362;SDS011;64265;51.664;7.626;2023-05-09T04:01:54;1.40;;;1.30;;
2362;SDS011;64265;51.664;7.626;2023-05-09T04:04:20;1.65;;;1.55;;
2362;SDS011;64265;51.664;7.626;2023-05-09T04:06:48;1.20;;;1.10;;
2362;SDS011;64265;51.664;7.626;2023-05-09T04:09:15;1.40;;;1.30;;
2362;SDS011;64265;51.664;7.626;2023-05-09T04:11:42;1.70;;;1.60;;
2362;SDS011;64265;51.664;7.626;2023-05-09T04:14:09;1.58;;;1.48;;
2362;SDS011;64265;51.664;7.626;2023-05-09T04:16:36;1.33;;;1.23;;
2362;SDS011;64265;51.664;7.626;2023-05-09T04:19:02;1.85;;;1.65;;
2362;SDS011;64265;51.664;7.626;2023-05-09T04:21:31;1.30;;;1.20;;
2362;SDS011;64265;51.664;7.626;2023-05-09T04:23:59;1.40;;;1.30;;
2362;SDS011;64265;51.664;7.626;2023-05-09T04:26:28;1.35;;;1.00;;
2362;SDS011;64265;51.664;7.626;2023-05-09T04:28:55;1.48;;;1.38;;
2362;SDS011;64265;51.664;7.626;2023-05-09T04:31:22;1.58;;;1.48;;
2362;SDS011;64265;51.664;7.626;2023-05-09T04:33:50;1.40;;;1.30;;
2362;SDS011;64265;51.664;7.626;2023-05-09T04:36:17;1.73;;;1.63;;
2362;SDS011;64265;51.664;7.626;2023-05-09T04:38:43;1.50;;;1.40;;
2362;SDS011;64265;51.664;7.626;2023-05-09T04:41:11;1.63;;;1.53;;
2362;SDS011;64265;51.664;7.626;2023-05-09T04:43:38;1.40;;;1.30;;
2362;SDS011;64265;51.664;7.626;2023-05-09T04:46:05;1.50;;;1.40;;
2362;SDS011;64265;51.664;7.626;2023-05-09T04:48:33;1.75;;;1.48;;
2362;SDS011;64265;51.664;7.626;2023-05-09T04:50:59;1.27;;;1.17;;
2362;SDS011;64265;51.664;7.626;2023-05-09T04:53:26;1.52;;;1.42;;
2362;SDS011;64265;51.664;7.626;2023-05-09T04:55:53;1.25;;;1.15;;
2362;SDS011;64265;51.664;7.626;2023-05-09T04:58:21;1.48;;;1.38;;
2362;SDS011;64265;51.664;7.626;2023-05-09T05:00:49;1.85;;;1.75;;
2362;SDS011;64265;51.664;7.626;2023-05-09T05:03:16;1.20;;;1.10;;
2362;SDS011;64265;51.664;7.626;2023-05-09T05:05:43;1.27;;;1.17;;
2362;SDS011;64265;51.664;7.626;2023-05-09T05:08:10;1.40;;;1.30;;
2362;SDS011;64265;51.664;7.626;2023-05-09T05:10:36;1.20;;;1.10;;
2362;SDS011;64265;51.664;7.626;2023-05-09T05:13:03;2.00;;;1.80;;
2362;SDS011;64265;51.664;7.626;2023-05-09T05:15:31;1.67;;;1.40;;
2362;SDS011;64265;51.664;7.626;2023-05-09T05:17:58;1.60;;;1.50;;
2362;SDS011;64265;51.664;7.626;2023-05-09T05:20:25;1.30;;;1.20;;
2362;SDS011;64265;51.664;7.626;2023-05-09T05:22:52;1.77;;;1.67;;
2362;SDS011;64265;51.664;7.626;2023-05-09T05:25:18;1.27;;;1.17;;
2362;SDS011;64265;51.664;7.626;2023-05-09T05:27:46;1.63;;;1.30;;
2362;SDS011;64265;51.664;7.626;2023-05-09T05:30:13;1.30;;;1.20;;
2362;SDS011;64265;51.664;7.626;2023-05-09T05:32:41;1.30;;;1.20;;
2362;SDS011;64265;51.664;7.626;2023-05-09T05:35:08;1.40;;;1.30;;
2362;SDS011;64265;51.664;7.626;2023-05-09T05:37:36;1.50;;;1.20;;
2362;SDS011;64265;51.664;7.626;2023-05-09T05:40:04;1.50;;;1.40;;
2362;SDS011;64265;51.664;7.626;2023-05-09T05:42:31;1.38;;;1.27;;
2362;SDS011;64265;51.664;7.626;2023-05-09T05:44:58;1.47;;;1.37;;
2362;SDS011;64265;51.664;7.626;2023-05-09T05:47:28;1.30;;;1.20;;
2362;SDS011;64265;51.664;7.626;2023-05-09T05:50:01;1.43;;;1.33;;
2362;SDS011;64265;51.664;7.626;2023-05-09T05:52:30;1.57;;;1.40;;
2362;SDS011;64265;51.664;7.626;2023-05-09T05:54:57;1.20;;;1.10;;
2362;SDS011;64265;51.664;7.626;2023-05-09T05:57:24;1.83;;;1.73;;
2362;SDS011;64265;51.664;7.626;2023-05-09T05:59:51;2.60;;;1.57;;
2362;SDS011;64265;51.664;7.626;2023-05-09T06:02:18;1.50;;;1.40;;
2362;SDS011;64265;51.664;7.626;2023-05-09T06:04:44;1.40;;;1.30;;
2362;SDS011;64265;51.664;7.626;2023-05-09T06:07:13;1.90;;;1.70;;
2362;SDS011;64265;51.664;7.626;2023-05-09T06:09:41;1.57;;;1.47;;
2362;SDS011;64265;51.664;7.626;2023-05-09T06:12:07;1.77;;;1.67;;
2362;SDS011;64265;51.664;7.626;2023-05-09T06:14:35;1.77;;;1.67;;
2362;SDS011;64265;51.664;7.626;2023-05-09T06:17:02;1.60;;;1.50;;
2362;SDS011;64265;51.664;7.626;2023-05-09T06:19:29;1.70;;;1.60;;
2362;SDS011;64265;51.664;7.626;2023-05-09T06:21:56;1.47;;;1.37;;
2362;SDS011;64265;51.664;7.626;2023-05-09T06:24:24;1.50;;;1.40;;
2362;SDS011;64265;51.664;7.626;2023-05-09T06:26:51;1.70;;;1.60;;
2362;SDS011;64265;51.664;7.626;2023-05-09T06:29:17;1.43;;;1.33;;
2362;SDS011;64265;51.664;7.626;2023-05-09T06:31:44;1.60;;;1.50;;
2362;SDS011;64265;51.664;7.626;2023-05-09T06:34:12;1.50;;;1.40;;
2362;SDS011;64265;51.664;7.626;2023-05-09T06:36:39;1.40;;;1.30;;
2362;SDS011;64265;51.664;7.626;2023-05-09T06:39:05;1.35;;;1.23;;
2362;SDS011;64265;51.664;7.626;2023-05-09T06:41:34;1.57;;;1.47;;
2362;SDS011;64265;51.664;7.626;2023-05-09T06:44:00;1.47;;;1.37;;
2362;SDS011;64265;51.664;7.626;2023-05-09T06:46:27;1.27;;;1.17;;
2362;SDS011;64265;51.664;7.626;2023-05-09T06:48:54;1.63;;;1.53;;
2362;SDS011;64265;51.664;7.626;2023-05-09T06:51:21;1.53;;;1.43;;
2362;SDS011;64265;51.664;7.626;2023-05-09T06:53:47;1.57;;;1.47;;
2362;SDS011;64265;51.664;7.626;2023-05-09T06:56:15;1.53;;;1.40;;
2362;SDS011;64265;51.664;7.626;2023-05-09T06:58:45;1.43;;;1.20;;
2362;SDS011;64265;51.664;7.626;2023-05-09T07:01:12;1.47;;;1.37;;
2362;SDS011;64265;51.664;7.626;2023-05-09T07:03:38;1.37;;;1.27;;
2362;SDS011;64265;51.664;7.626;2023-05-09T07:06:05;1.40;;;1.30;;
2362;SDS011;64265;51.664;7.626;2023-05-09T07:08:32;1.50;;;1.40;;
2362;SDS011;64265;51.664;7.626;2023-05-09T07:10:59;1.30;;;1.20;;
2362;SDS011;64265;51.664;7.626;2023-05-09T07:13:26;1.35;;;1.25;;
2362;SDS011;64265;51.664;7.626;2023-05-09T07:15:54;2.00;;;1.90;;
2362;SDS011;64265;51.664;7.626;2023-05-09T07:18:21;1.50;;;1.40;;
2362;SDS011;64265;51.664;7.626;2023-05-09T07:20:48;1.90;;;1.70;;
2362;SDS011;64265;51.664;7.626;2023-05-09T07:23:15;1.60;;;1.50;;
2362;SDS011;64265;51.664;7.626;2023-05-09T07:25:42;1.57;;;1.47;;
2362;SDS011;64265;51.664;7.626;2023-05-09T07:28:09;1.80;;;1.47;;
2362;SDS011;64265;51.664;7.626;2023-05-09T07:30:36;1.42;;;1.33;;
2362;SDS011;64265;51.664;7.626;2023-05-09T07:33:04;1.27;;;1.17;;
2362;SDS011;64265;51.664;7.626;2023-05-09T07:35:31;1.90;;;1.70;;
2362;SDS011;64265;51.664;7.626;2023-05-09T07:37:58;1.50;;;1.40;;
2362;SDS011;64265;51.664;7.626;2023-05-09T07:40:25;1.70;;;1.60;;
2362;SDS011;64265;51.664;7.626;2023-05-09T07:42:52;1.30;;;1.20;;
2362;SDS011;64265;51.664;7.626;2023-05-09T07:45:20;1.30;;;1.20;;
2362;SDS011;64265;51.664;7.626;2023-05-09T07:47:47;1.40;;;1.30;;
2362;SDS011;64265;51.664;7.626;2023-05-09T07:50:15;1.27;;;1.17;;
2362;SDS011;64265;51.664;7.626;2023-05-09T07:52:42;1.70;;;1.60;;
2362;SDS011;64265;51.664;7.626;2023-05-09T07:55:09;4.07;;;1.50;;
2362;SDS011;64265;51.664;7.626;2023-05-09T07:57:36;1.60;;;1.50;;
2362;SDS011;64265;51.664;7.626;2023-05-09T08:00:04;1.63;;;1.53;;
2362;SDS011;64265;51.664;7.626;2023-05-09T08:02:31;1.60;;;1.50;;
2362;SDS011;64265;51.664;7.626;2023-05-09T08:04:58;1.70;;;1.60;;
2362;SDS011;64265;51.664;7.626;2023-05-09T08:07:26;1.57;;;1.47;;
2362;SDS011;64265;51.664;7.626;2023-05-09T08:09:53;1.57;;;1.47;;
2362;SDS011;64265;51.664;7.626;2023-05-09T08:12:20;1.50;;;1.40;;
2362;SDS011;64265;51.664;7.626;2023-05-09T08:14:46;1.57;;;1.33;;
2362;SDS011;64265;51.664;7.626;2023-05-09T08:17:13;1.93;;;1.83;;
2362;SDS011;64265;51.664;7.626;2023-05-09T08:19:40;1.67;;;1.57;;
2362;SDS011;64265;51.664;7.626;2023-05-09T08:22:06;1.27;;;1.17;;
2362;SDS011;64265;51.664;7.626;2023-05-09T08:24:34;1.50;;;1.40;;
2362;SDS011;64265;51.664;7.626;2023-05-09T08:27:03;1.50;;;1.40;;
2362;SDS011;64265;51.664;7.626;2023-05-09T08:29:30;1.50;;;1.40;;
2362;SDS011;64265;51.664;7.626;2023-05-09T08:31:59;1.30;;;1.10;;
2362;SDS011;64265;51.664;7.626;2023-05-09T08:34:25;1.50;;;1.40;;
2362;SDS011;64265;51.664;7.626;2023-05-09T08:36:52;1.83;;;1.73;;
2362;SDS011;64265;51.664;7.626;2023-05-09T08:39:19;1.30;;;1.20;;
2362;SDS011;64265;51.664;7.626;2023-05-09T08:41:48;1.50;;;1.40;;
2362;SDS011;64265;51.664;7.626;2023-05-09T08:44:15;1.30;;;1.20;;
2362;SDS011;64265;51.664;7.626;2023-05-09T08:46:42;2.70;;;1.40;;
2362;SDS011;64265;51.664;7.626;2023-05-09T08:49:11;1.50;;;1.40;;
2362;SDS011;64265;51.664;7.626;2023-05-09T08:51:41;8.93;;;1.83;;
2362;SDS011;64265;51.664;7.626;2023-05-09T08:54:09;1.30;;;1.10;;
2362;SDS011;64265;51.664;7.626;2023-05-09T08:56:36;1.33;;;1.20;;
2362;SDS011;64265;51.664;7.626;2023-05-09T08:59:05;1.27;;;1.17;;
2362;SDS011;64265;51.664;7.626;2023-05-09T09:01:32;8.33;;;1.90;;
2362;SDS011;64265;51.664;7.626;2023-05-09T09:04:01;9.43;;;1.30;;
2362;SDS011;64265;51.664;7.626;2023-05-09T09:06:30;1.37;;;1.27;;
2362;SDS011;64265;51.664;7.626;2023-05-09T09:08:59;2.10;;;1.90;;
2362;SDS011;64265;51.664;7.626;2023-05-09T09:11:26;1.33;;;1.23;;
2362;SDS011;64265;51.664;7.626;2023-05-09T09:13:59;1.60;;;1.50;;
2362;SDS011;64265;51.664;7.626;2023-05-09T09:16:29;1.60;;;1.50;;
2362;SDS011;64265;51.664;7.626;2023-05-09T09:18:57;1.73;;;1.63;;
2362;SDS011;64265;51.664;7.626;2023-05-09T09:21:27;1.90;;;1.43;;
2362;SDS011;64265;51.664;7.626;2023-05-09T09:23:54;1.30;;;1.20;;
2362;SDS011;64265;51.664;7.626;2023-05-09T09:26:20;1.70;;;1.50;;
2362;SDS011;64265;51.664;7.626;2023-05-09T09:28:48;1.40;;;1.30;;
2362;SDS011;64265;51.664;7.626;2023-05-09T09:31:18;2.10;;;1.40;;
2362;SDS011;64265;51.664;7.626;2023-05-09T09:33:47;1.30;;;1.20;;
2362;SDS011;64265;51.664;7.626;2023-05-09T09:36:15;1.50;;;1.30;;
2362;SDS011;64265;51.664;7.626;2023-05-09T09:38:42;1.50;;;1.40;;
2362;SDS011;64265;51.664;7.626;2023-05-09T09:41:08;1.40;;;1.20;;
2362;SDS011;64265;51.664;7.626;2023-05-09T09:43:37;1.50;;;1.40;;
2362;SDS011;64265;51.664;7.626;2023-05-09T09:46:04;2.57;;;1.60;;
2362;SDS011;64265;51.664;7.626;2023-05-09T09:48:31;1.93;;;1.80;;
2362;SDS011;64265;51.664;7.626;2023-05-09T09:51:02;3.10;;;1.40;;
2362;SDS011;64265;51.664;7.626;2023-05-09T09:53:37;6.70;;;1.60;;
2362;SDS011;64265;51.664;7.626;2023-05-09T09:56:04;1.50;;;1.40;;
2362;SDS011;64265;51.664;7.626;2023-05-09T09:58:32;1.83;;;1.73;;
2362;SDS011;64265;51.664;7.626;2023-05-09T10:01:05;1.60;;;1.50;;
2362;SDS011;64265;51.664;7.626;2023-05-09T10:03:35;1.80;;;1.50;;
2362;SDS011;64265;51.664;7.626;2023-05-09T10:06:07;1.30;;;1.20;;
2362;SDS011;64265;51.664;7.626;2023-05-09T10:08:36;1.60;;;1.50;;
2362;SDS011;64265;51.664;7.626;2023-05-09T10:11:03;1.80;;;1.70;;
2362;SDS011;64265;51.664;7.626;2023-05-09T10:13:30;2.10;;;1.33;;
2362;SDS011;64265;51.664;7.626;2023-05-09T10:15:59;1.30;;;1.20;;
2362;SDS011;64265;51.664;7.626;2023-05-09T10:18:29;1.60;;;1.50;;
2362;SDS011;64265;51.664;7.626;2023-05-09T10:20:56;1.50;;;1.40;;
2362;SDS011;64265;51.664;7.626;2023-05-09T10:23:27;1.47;;;1.37;;
2362;SDS011;64265;51.664;7.626;2023-05-09T10:25:57;1.20;;;1.10;;
2362;SDS011;64265;51.664;7.626;2023-05-09T10:28:30;1.37;;;1.27;;
2362;SDS011;64265;51.664;7.626;2023-05-09T10:30:58;2.10;;;1.67;;
2362;SDS011;64265;51.664;7.626;2023-05-09T10:33:30;1.80;;;1.70;;
2362;SDS011;64265;51.664;7.626;2023-05-09T10:36:02;1.37;;;1.27;;
2362;SDS011;64265;51.664;7.626;2023-05-09T10:38:32;1.50;;;1.40;;
2362;SDS011;64265;51.664;7.626;2023-05-09T10:40:59;1.93;;;1.70;;
2362;SDS011;64265;51.664;7.626;2023-05-09T10:43:27;2.20;;;2.00;;
2362;SDS011;64265;51.664;7.626;2023-05-09T10:45:55;4.80;;;2.50;;
2362;SDS011;64265;51.664;7.626;2023-05-09T10:48:22;2.30;;;2.20;;
2362;SDS011;64265;51.664;7.626;2023-05-09T10:50:49;5.70;;;2.23;;
2362;SDS011;64265;51.664;7.626;2023-05-09T10:53:16;3.27;;;2.97;;
2362;SDS011;64265;51.664;7.626;2023-05-09T10:55:51;3.07;;;2.87;;
2362;SDS011;64265;51.664;7.626;2023-05-09T10:58:25;3.30;;;3.00;;
2362;SDS011;64265;51.664;7.626;2023-05-09T11:00:53;3.83;;;3.53;;
2362;SDS011;64265;51.664;7.626;2023-05-09T11:03:25;3.57;;;3.20;;
2362;SDS011;64265;51.664;7.626;2023-05-09T11:05:55;3.70;;;3.40;;
2362;SDS011;64265;51.664;7.626;2023-05-09T11:08:23;7.40;;;3.50;;
2362;SDS011;64265;51.664;7.626;2023-05-09T11:10:54;3.70;;;3.50;;
2362;SDS011;64265;51.664;7.626;2023-05-09T11:13:46;4.60;;;3.10;;
2362;SDS011;64265;51.664;7.626;2023-05-09T11:16:29;2.93;;;2.73;;
2362;SDS011;64265;51.664;7.626;2023-05-09T11:19:32;3.30;;;2.67;;
2362;SDS011;64265;51.664;7.626;2023-05-09T11:22:00;3.13;;;2.90;;
2362;SDS011;64265;51.664;7.626;2023-05-09T11:24:27;4.03;;;2.60;;
2362;SDS011;64265;51.664;7.626;2023-05-09T11:26:58;2.90;;;2.67;;
2362;SDS011;64265;51.664;7.626;2023-05-09T11:29:26;3.50;;;3.20;;
2362;SDS011;64265;51.664;7.626;2023-05-09T11:32:05;5.50;;;3.20;;
2362;SDS011;64265;51.664;7.626;2023-05-09T11:34:32;3.23;;;2.70;;
2362;SDS011;64265;51.664;7.626;2023-05-09T11:37:06;8.60;;;2.93;;
2362;SDS011;64265;51.664;7.626;2023-05-09T11:39:34;4.13;;;2.70;;
2362;SDS011;64265;51.664;7.626;2023-05-09T11:42:21;4.17;;;3.17;;
2362;SDS011;64265;51.664;7.626;2023-05-09T11:44:48;4.30;;;2.43;;
2362;SDS011;64265;51.664;7.626;2023-05-09T11:47:16;5.00;;;2.67;;
2362;SDS011;64265;51.664;7.626;2023-05-09T11:49:43;5.17;;;2.60;;
2362;SDS011;64265;51.664;7.626;2023-05-09T11:52:10;4.20;;;2.97;;
2362;SDS011;64265;51.664;7.626;2023-05-09T11:54:37;3.83;;;3.57;;
2362;SDS011;64265;51.664;7.626;2023-05-09T11:57:04;3.63;;;2.73;;
2362;SDS011;64265;51.664;7.626;2023-05-09T11:59:33;4.20;;;3.20;;
2362;SDS011;64265;51.664;7.626;2023-05-09T12:02:03;8.23;;;3.43;;
2362;SDS011;64265;51.664;7.626;2023-05-09T12:04:32;3.67;;;2.83;;
2362;SDS011;64265;51.664;7.626;2023-05-09T12:06:59;2.87;;;2.67;;
2362;SDS011;64265;51.664;7.626;2023-05-09T12:09:28;2.40;;;2.20;;
2362;SDS011;64265;51.664;7.626;2023-05-09T12:11:56;3.50;;;2.70;;
2362;SDS011;64265;51.664;7.626;2023-05-09T12:14:27;2.70;;;2.50;;
2362;SDS011;64265;51.664;7.626;2023-05-09T12:16:56;7.10;;;3.03;;
2362;SDS011;64265;51.664;7.626;2023-05-09T12:19:23;2.80;;;2.50;;
2362;SDS011;64265;51.664;7.626;2023-05-09T12:21:53;2.93;;;2.43;;
2362;SDS011;64265;51.664;7.626;2023-05-09T12:24:21;2.60;;;2.40;;
2362;SDS011;64265;51.664;7.626;2023-05-09T12:26:50;6.00;;;2.33;;
2362;SDS011;64265;51.664;7.626;2023-05-09T12:29:17;3.23;;;2.83;;
2362;SDS011;64265;51.664;7.626;2023-05-09T12:31:44;5.00;;;2.90;;
2362;SDS011;64265;51.664;7.626;2023-05-09T12:34:13;2.40;;;2.20;;
2362;SDS011;64265;51.664;7.626;2023-05-09T12:36:42;2.80;;;2.60;;
2362;SDS011;64265;51.664;7.626;2023-05-09T12:39:14;2.70;;;2.50;;
2362;SDS011;64265;51.664;7.626;2023-05-09T12:41:42;3.73;;;2.33;;
2362;SDS011;64265;51.664;7.626;2023-05-09T12:44:16;1.97;;;1.87;;
2362;SDS011;64265;51.664;7.626;2023-05-09T12:46:51;6.60;;;2.37;;
2362;SDS011;64265;51.664;7.626;2023-05-09T12:49:21;2.63;;;2.43;;
2362;SDS011;64265;51.664;7.626;2023-05-09T12:51:48;2.83;;;2.57;;
2362;SDS011;64265;51.664;7.626;2023-05-09T12:54:18;2.83;;;2.63;;
2362;SDS011;64265;51.664;7.626;2023-05-09T12:56:46;2.73;;;2.53;;
2362;SDS011;64265;51.664;7.626;2023-05-09T12:59:14;2.67;;;1.87;;
2362;SDS011;64265;51.664;7.626;2023-05-09T13:01:49;2.10;;;1.90;;
2362;SDS011;64265;51.664;7.626;2023-05-09T13:04:18;2.60;;;2.40;;
2362;SDS011;64265;51.664;7.626;2023-05-09T13:06:50;2.43;;;2.23;;
2362;SDS011;64265;51.664;7.626;2023-05-09T13:09:19;2.30;;;2.10;;
2362;SDS011;64265;51.664;7.626;2023-05-09T13:11:47;3.07;;;2.77;;
2362;SDS011;64265;51.664;7.626;2023-05-09T13:14:15;2.93;;;2.67;;
2362;SDS011;64265;51.664;7.626;2023-05-09T13:16:42;2.13;;;2.03;;
2362;SDS011;64265;51.664;7.626;2023-05-09T13:19:09;2.13;;;1.87;;
2362;SDS011;64265;51.664;7.626;2023-05-09T13:21:36;2.80;;;2.60;;
2362;SDS011;64265;51.664;7.626;2023-05-09T13:24:04;2.60;;;2.40;;
2362;SDS011;64265;51.664;7.626;2023-05-09T13:26:31;2.50;;;2.30;;
2362;SDS011;64265;51.664;7.626;2023-05-09T13:28:58;2.37;;;2.17;;
2362;SDS011;64265;51.664;7.626;2023-05-09T13:31:25;2.10;;;1.90;;
2362;SDS011;64265;51.664;7.626;2023-05-09T13:33:52;2.80;;;2.57;;
2362;SDS011;64265;51.664;7.626;2023-05-09T13:36:19;2.40;;;2.20;;
2362;SDS011;64265;51.664;7.626;2023-05-09T13:38:45;2.57;;;2.20;;
2362;SDS011;64265;51.664;7.626;2023-05-09T13:41:13;3.10;;;2.80;;
2362;SDS011;64265;51.664;7.626;2023-05-09T13:43:44;3.20;;;2.90;;
2362;SDS011;64265;51.664;7.626;2023-05-09T13:46:10;3.10;;;2.80;;
2362;SDS011;64265;51.664;7.626;2023-05-09T13:48:37;3.63;;;2.73;;
2362;SDS011;64265;51.664;7.626;2023-05-09T13:51:05;2.13;;;1.93;;
2362;SDS011;64265;51.664;7.626;2023-05-09T13:53:32;2.67;;;2.47;;
2362;SDS011;64265;51.664;7.626;2023-05-09T13:55:59;3.03;;;2.23;;
2362;SDS011;64265;51.664;7.626;2023-05-09T13:58:27;2.80;;;2.20;;
2362;SDS011;64265;51.664;7.626;2023-05-09T14:00:54;3.93;;;1.80;;
2362;SDS011;64265;51.664;7.626;2023-05-09T14:03:20;2.63;;;2.07;;
2362;SDS011;64265;51.664;7.626;2023-05-09T14:05:47;2.10;;;2.00;;
2362;SDS011;64265;51.664;7.626;2023-05-09T14:08:14;2.53;;;2.33;;
2362;SDS011;64265;51.664;7.626;2023-05-09T14:10:42;2.50;;;2.30;;
2362;SDS011;64265;51.664;7.626;2023-05-09T14:13:12;2.37;;;2.17;;
2362;SDS011;64265;51.664;7.626;2023-05-09T14:15:40;4.17;;;2.23;;
2362;SDS011;64265;51.664;7.626;2023-05-09T14:18:07;2.60;;;2.40;;
2362;SDS011;64265;51.664;7.626;2023-05-09T14:20:37;19.87;;;2.83;;
2362;SDS011;64265;51.664;7.626;2023-05-09T14:23:04;2.63;;;2.42;;
2362;SDS011;64265;51.664;7.626;2023-05-09T14:25:36;2.87;;;1.60;;
2362;SDS011;64265;51.664;7.626;2023-05-09T14:28:04;4.77;;;2.60;;
2362;SDS011;64265;51.664;7.626;2023-05-09T14:30:33;2.87;;;2.07;;
2362;SDS011;64265;51.664;7.626;2023-05-09T14:33:01;2.80;;;2.10;;
2362;SDS011;64265;51.664;7.626;2023-05-09T14:35:28;3.03;;;2.33;;
2362;SDS011;64265;51.664;7.626;2023-05-09T14:37:56;5.73;;;2.73;;
2362;SDS011;64265;51.664;7.626;2023-05-09T14:40:23;3.97;;;2.20;;
2362;SDS011;64265;51.664;7.626;2023-05-09T14:42:50;3.10;;;2.90;;
2362;SDS011;64265;51.664;7.626;2023-05-09T14:45:17;5.10;;;2.87;;
2362;SDS011;64265;51.664;7.626;2023-05-09T14:47:43;2.40;;;2.17;;
2362;SDS011;64265;51.664;7.626;2023-05-09T14:50:12;2.80;;;1.90;;
2362;SDS011;64265;51.664;7.626;2023-05-09T14:52:40;2.17;;;1.97;;
2362;SDS011;64265;51.664;7.626;2023-05-09T14:55:07;2.70;;;2.00;;
2362;SDS011;64265;51.664;7.626;2023-05-09T14:57:34;2.53;;;2.27;;
2362;SDS011;64265;51.664;7.626;2023-05-09T15:00:01;2.37;;;2.00;;
2362;SDS011;64265;51.664;7.626;2023-05-09T15:02:29;2.50;;;2.30;;
2362;SDS011;64265;51.664;7.626;2023-05-09T15:04:55;4.43;;;2.30;;
2362;SDS011;64265;51.664;7.626;2023-05-09T15:07:24;3.53;;;2.37;;
2362;SDS011;64265;51.664;7.626;2023-05-09T15:09:50;2.60;;;2.40;;